• Join FlightAware (Why Join?)
  • Login
  • US Flag 
11:04PM EDT


 

Airport Tracker/Info


-or-


 

Live Flight TrackerFlight Track Log ✈ SWA22 ✈ 09/Apr/2013 ✈ KDAL - KAMA

Flight Track Log - Related Links

Times and Time Zones

All times are in EDT time to prevent confusion due to time zone crossing. See the SWA22 flight status page for this flight to view local times or setup timezone preferences in your user account.

Time Position Orientation Groundspeed Altitude Reporting Facility
EDT Latitude Longitude Course Direction KTS MPH feet Rate Location/Type
02:27PM 32.8167 -96.8000 307° West 184 212 2,700  Level Dallas / Fort Worth TRACON
02:28PM 32.7667 -96.7667 151° Southeast 211 243 6,100 3,000 Climbing Dallas / Fort Worth TRACON
02:29PM 32.7167 -96.7667 180° South 210 242 8,500 1,620 Climbing Dallas / Fort Worth TRACON
02:30PM 32.6633 -96.8953 244° Southwest 258 297 10,800 1,740 Climbing Fort Worth Center
02:31PM 32.7117 -97.0133 296° West 309 356 13,700 2,880 Climbing Fort Worth Center
02:32PM 33.1350 -97.4193 307° West  Level FlightAware Approximate
02:32PM 32.7600 -97.1022 303° West 342 394 16,600  Level Fort Worth Center
02:33PM 32.8164 -97.2108 302° West 353 406 19,800 2,400 Climbing Fort Worth Center
02:34PM 32.8647 -97.3044 302° West 367 422 21,500 1,920 Climbing Fort Worth Center
02:35PM 32.9294 -97.4283 302° West 390 449 23,700 1,860 Climbing Fort Worth Center
02:36PM 32.9836 -97.5322 302° West 407 468 25,300 1,800 Climbing Fort Worth Center
02:37PM 33.0439 -97.6464 302° West 413 475 27,400 1,920 Climbing Fort Worth Center
02:38PM 33.1000 -97.7606 300° West 408 470 29,200 1,560 Climbing Fort Worth Center
02:39PM 33.1394 -97.8872 290° West 408 470 30,600 1,500 Climbing Fort Worth Center
02:40PM 33.1806 -98.0192 290° West 415 478 32,300 1,800 Climbing Fort Worth Center
02:41PM 33.2194 -98.1411 291° West 410 472 34,300 1,560 Climbing Fort Worth Center
02:42PM 33.2603 -98.2756 290° West 400 460 35,500 840 Climbing Fort Worth Center
02:43PM 33.3033 -98.3778 297° West 395 455 36,000 240 Climbing Fort Worth Center
02:44PM 33.3714 -98.4881 306° West 401 461 36,000  Level Fort Worth Center
02:45PM 33.4394 -98.5983 307° West 406 467 36,000  Level Fort Worth Center
02:46PM 33.5072 -98.7114 306° West 412 474 36,000  Level Fort Worth Center
02:47PM 33.5850 -98.8397 306° West 424 488 36,000  Level Fort Worth Center
02:48PM 33.6547 -98.9531 306° West 430 495 36,000  Level Fort Worth Center
02:49PM 33.7200 -99.0717 304° West 430 495 36,000  Level Fort Worth Center
02:50PM 33.7789 -99.1728 305° West 423 487 36,000  Level Fort Worth Center
02:51PM 33.8419 -99.2917 303° West 428 493 36,000  Level Fort Worth Center
02:52PM 33.8964 -99.4253 296° West 428 493 36,000  Level Fort Worth Center
02:53PM 33.9506 -99.5467 298° West 423 487 36,000  Level Fort Worth Center
02:54PM 34.0067 -99.6733 298° West 418 481 36,000 -300 Level Fort Worth Center
02:55PM 34.0525 -99.7900 295° West 413 475 35,500 -600 Descending Fort Worth Center
02:56PM 34.0983 -99.9117 294° West 403 464 34,800 -900 Descending Fort Worth Center
02:57PM 34.1439 -100.0308 295° West 403 464 33,800 -1,200 Descending Fort Worth Center
02:58PM 34.1892 -100.1503 295° West 395 455 32,400 -1,380 Descending Fort Worth Center
03:01PM 34.3464 -100.4033 307° West 413 475 29,500 -1,140 Descending Albuquerque Center
03:02PM 34.4158 -100.5092 309° West 408 470 28,700 -840 Descending Albuquerque Center
03:03PM 34.4833 -100.6133 308° West 401 461 27,800 -960 Descending Albuquerque Center
03:04PM 34.5514 -100.7186 308° West 397 457 26,800 -2,040 Descending Albuquerque Center
03:05PM 34.6208 -100.8219 309° West 396 456 23,700 -3,420 Descending Albuquerque Center
03:06PM 34.6931 -100.9372 307° West 420 483 19,800 -3,780 Descending Albuquerque Center
03:07PM 34.7814 -101.0733 308° West 429 494 16,000 -3,120 Descending Albuquerque Center
03:08PM 34.8469 -101.1800 307° West 405 466 13,500 -2,460 Descending Albuquerque Center
03:09PM 34.9017 -101.2861 302° West 377 434 11,000 -1,740 Descending Albuquerque Center
03:10PM 34.9547 -101.3850 303° West 362 417 10,000 -960 Descending Albuquerque Center
03:11PM 35.0022 -101.4611 307° West 312 359 9,100 -1,080 Descending Albuquerque Center
03:12PM 35.0578 -101.5186 320° Northwest 282 325 7,800 -1,020 Descending Albuquerque Center
03:13PM 35.1056 -101.5689 319° Northwest 253 291 7,000 -1,140 Descending Albuquerque Center
03:14PM 35.1422 -101.6069 320° Northwest 205 236 5,500 -1,380 Descending Albuquerque Center
03:15PM 35.1750 -101.6386 322° Northwest 147 169 4,200 -780 Descending Albuquerque Center
03:16PM 35.1997 -101.6636 320° Northwest 126 145 4,000 -300 Descending Albuquerque Center
03:17PM 35.2239 -101.6892 319° Northwest 117 135 3,600 -420 Descending Albuquerque Center